Terminal Aerodrome Forecast
Issued by NWS Corpus Christi, TX

Home | Current Version | Previous Version | Text Only | Print | Product List | Glossary On
Versions: 1 2 3 4 5 6 7 8 9 10 11 12 13
000
FTUS44 KCRP 261100
TAFCRP
TAF
KCRP 261129Z 2612/2712 16014KT P6SM SCT022 OVC050
      TEMPO 2612/2614 BKN022
     FM261430 17017G24KT P6SM BKN018 OVC050
     FM261700 16015G22KT P6SM BKN024 OVC050
     FM262200 15014KT P6SM SCT025 BKN040
     FM270200 15008KT P6SM BKN015
     FM270700 16006KT 4SM BR BKN008 OVC015=

USA.gov is the U.S. government's official web portal to all federal, state and local government web resources and services.